createdAt,value
2022-08-28T00:01:30.573Z,75.71
2022-08-28T00:03:59.560Z,75.82
2022-08-28T00:06:26.416Z,75.93
2022-08-28T00:08:57.925Z,75.94
2022-08-28T00:11:29.476Z,76.31
2022-08-28T00:14:07.353Z,76.36
2022-08-28T00:16:42.148Z,75.91
2022-08-28T00:19:18.724Z,76.10
2022-08-28T00:21:45.801Z,76.02
2022-08-28T00:24:14.480Z,76.11
2022-08-28T00:27:24.489Z,75.90
2022-08-28T00:29:51.061Z,76.25
2022-08-28T00:32:17.576Z,76.19
2022-08-28T00:34:50.533Z,76.30
2022-08-28T00:37:18.284Z,76.35
2022-08-28T00:39:44.842Z,76.39
2022-08-28T00:42:11.320Z,76.78
2022-08-28T00:44:38.369Z,76.53
2022-08-28T00:47:18.293Z,76.23
2022-08-28T00:49:58.311Z,76.98
2022-08-28T00:52:26.949Z,76.91
2022-08-28T00:55:18.959Z,76.56
2022-08-28T00:57:52.431Z,76.38
2022-08-28T01:00:25.368Z,76.73
2022-08-28T01:02:53.248Z,76.84
2022-08-28T01:05:29.973Z,77.02
2022-08-28T01:07:58.847Z,76.95
2022-08-28T01:10:29.172Z,76.92
2022-08-28T01:12:57.413Z,76.72
2022-08-28T01:15:35.412Z,76.62
2022-08-28T01:18:08.244Z,76.98
2022-08-28T01:20:37.774Z,77.00
2022-08-28T01:23:51.586Z,76.83
2022-08-28T01:26:22.269Z,77.41
2022-08-28T01:29:31.555Z,77.35
2022-08-28T01:31:59.592Z,77.45
2022-08-28T01:34:26.479Z,77.73
2022-08-28T01:37:03.376Z,77.55
2022-08-28T01:39:30.368Z,77.72
2022-08-28T01:41:59.501Z,78.04
2022-08-28T01:44:28.111Z,78.01
2022-08-28T01:47:13.638Z,77.54
2022-08-28T01:49:40.317Z,78.35
2022-08-28T01:52:09.954Z,78.21
2022-08-28T01:55:21.570Z,78.15
2022-08-28T01:57:52.997Z,78.51
2022-08-28T02:00:25.772Z,78.54
2022-08-28T02:02:52.260Z,78.87
2022-08-28T02:05:52.871Z,78.44
2022-08-28T02:08:20.617Z,78.75
2022-08-28T02:10:47.973Z,78.83
2022-08-28T02:13:22.618Z,78.58
2022-08-28T02:15:52.424Z,79.11
2022-08-28T02:18:18.981Z,79.20
2022-08-28T02:20:45.518Z,79.05
2022-08-28T02:23:12.830Z,79.22
2022-08-28T02:25:43.536Z,79.20
2022-08-28T02:28:10.161Z,79.39
2022-08-28T02:30:40.213Z,79.17
2022-08-28T02:33:35.400Z,79.05
2022-08-28T02:36:01.844Z,79.26
2022-08-28T02:38:29.587Z,79.90
2022-08-28T02:40:57.920Z,79.75
2022-08-28T02:43:24.340Z,79.70
2022-08-28T02:45:50.848Z,79.54
2022-08-28T02:48:48.381Z,79.26
2022-08-28T02:51:15.006Z,79.32
2022-08-28T02:53:42.579Z,79.59
2022-08-28T02:56:13.325Z,80.11
2022-08-28T02:58:42.421Z,80.01
2022-08-28T03:01:34.349Z,79.54
2022-08-28T03:04:15.374Z,79.73
2022-08-28T03:06:47.981Z,79.90
2022-08-28T03:09:14.397Z,79.84
2022-08-28T03:11:41.408Z,80.35
2022-08-28T03:14:07.883Z,80.03
2022-08-28T03:16:34.582Z,80.18
2022-08-28T03:19:04.281Z,80.33
2022-08-28T03:21:30.715Z,80.10
2022-08-28T03:24:03.899Z,80.50
2022-08-28T03:26:30.838Z,80.64
2022-08-28T03:29:16.024Z,80.36
2022-08-28T03:31:45.448Z,80.48
2022-08-28T03:34:11.868Z,80.21
2022-08-28T03:36:44.345Z,80.63
2022-08-28T03:39:21.888Z,80.32
2022-08-28T03:41:48.470Z,80.80
2022-08-28T03:44:16.666Z,80.61
2022-08-28T03:46:55.375Z,80.67
2022-08-28T03:49:21.900Z,80.59
2022-08-28T03:51:49.448Z,80.24
2022-08-28T03:54:34.220Z,80.47
2022-08-28T03:57:21.235Z,80.85
2022-08-28T03:59:49.717Z,80.55
2022-08-28T04:02:21.561Z,80.76
2022-08-28T04:04:49.393Z,80.85
2022-08-28T04:07:19.921Z,80.89
2022-08-28T04:09:51.432Z,80.77
2022-08-28T04:12:18.671Z,80.92
2022-08-28T04:14:45.088Z,81.25
2022-08-28T04:17:16.468Z,80.93
2022-08-28T04:19:46.995Z,81.00
2022-08-28T04:22:23.762Z,81.05
2022-08-28T04:24:50.331Z,81.01
2022-08-28T04:27:17.755Z,81.18
2022-08-28T04:29:44.177Z,81.25
2022-08-28T04:32:10.593Z,81.39
2022-08-28T04:35:27.442Z,80.94
2022-08-28T04:38:23.087Z,81.32
2022-08-28T04:40:55.894Z,81.26
2022-08-28T04:43:43.101Z,81.12
2022-08-28T04:46:47.304Z,81.33
2022-08-28T04:49:27.807Z,81.41
2022-08-28T04:51:57.217Z,81.50
2022-08-28T04:54:23.603Z,81.46
2022-08-28T04:57:08.857Z,81.42
2022-08-28T04:59:41.892Z,81.64
2022-08-28T05:02:14.669Z,81.28
2022-08-28T05:05:01.252Z,81.34
2022-08-28T05:07:38.750Z,81.53
2022-08-28T05:10:21.089Z,81.53
2022-08-28T05:12:47.508Z,81.73
2022-08-28T05:15:17.176Z,82.11
2022-08-28T05:17:59.538Z,82.00
2022-08-28T05:20:39.392Z,81.89
2022-08-28T05:23:19.857Z,81.94
2022-08-28T05:25:48.749Z,81.92
2022-08-28T05:28:17.640Z,82.03
2022-08-28T05:30:44.956Z,82.40
2022-08-28T05:33:13.271Z,82.51
2022-08-28T05:35:44.112Z,82.54
2022-08-28T05:38:16.667Z,81.99
2022-08-28T05:40:49.581Z,82.48
2022-08-28T05:43:17.453Z,82.28
2022-08-28T05:45:46.153Z,82.13
2022-08-28T05:48:19.733Z,82.50
2022-08-28T05:50:47.300Z,82.35
2022-08-28T05:53:14.017Z,82.71
2022-08-28T05:55:40.675Z,82.47
2022-08-28T05:58:31.272Z,82.05
2022-08-28T06:01:15.199Z,82.12
2022-08-28T06:03:59.219Z,81.88
2022-08-28T06:06:28.344Z,82.25
2022-08-28T06:09:04.821Z,81.88
2022-08-28T06:11:31.391Z,81.64
2022-08-28T06:14:01.834Z,81.92
2022-08-28T06:16:30.962Z,82.29
2022-08-28T06:19:01.720Z,81.44
2022-08-28T06:21:29.503Z,81.00
2022-08-28T06:24:00.296Z,80.70
2022-08-28T06:26:27.215Z,80.08
2022-08-28T06:28:53.895Z,81.09
2022-08-28T06:31:29.760Z,80.47
2022-08-28T06:34:00.283Z,80.73
2022-08-28T06:36:34.378Z,80.01
2022-08-28T06:39:09.523Z,79.74
2022-08-28T06:41:40.979Z,79.03
2022-08-28T06:44:08.860Z,78.90
2022-08-28T06:46:35.675Z,78.68
2022-08-28T06:49:30.679Z,79.01
2022-08-28T06:51:57.129Z,79.07
2022-08-28T06:54:23.766Z,78.91
2022-08-28T06:56:53.339Z,77.63
2022-08-28T06:59:20.337Z,76.80
2022-08-28T07:01:47.906Z,76.55
2022-08-28T07:04:14.763Z,75.75
2022-08-28T07:07:01.668Z,75.60
2022-08-28T07:09:44.916Z,75.57
2022-08-28T07:12:17.632Z,74.79
2022-08-28T07:14:50.179Z,74.00
2022-08-28T07:17:16.631Z,74.28
2022-08-28T07:19:50.293Z,74.21
2022-08-28T07:22:16.702Z,74.12
2022-08-28T07:24:43.136Z,72.97
2022-08-28T07:27:18.301Z,72.86
2022-08-28T07:29:45.415Z,72.70
2022-08-28T07:32:13.240Z,71.02
2022-08-28T07:34:41.096Z,70.91
2022-08-28T07:37:15.402Z,71.22
2022-08-28T07:39:42.079Z,70.88
2022-08-28T07:42:41.314Z,70.55
2022-08-28T07:45:09.478Z,70.67
2022-08-28T07:47:45.068Z,70.77
2022-08-28T07:50:11.484Z,70.67
2022-08-28T07:52:37.921Z,70.64
2022-08-28T07:55:05.617Z,70.09
2022-08-28T07:57:32.127Z,68.99
2022-08-28T07:59:59.483Z,68.69
2022-08-28T08:02:26.728Z,68.93
2022-08-28T08:04:53.372Z,68.56
2022-08-28T08:07:20.464Z,67.76
2022-08-28T08:09:46.873Z,67.98
2022-08-28T08:12:14.737Z,67.22
2022-08-28T08:14:42.815Z,67.23
2022-08-28T08:17:10.493Z,66.75
2022-08-28T08:19:37.101Z,65.79
2022-08-28T08:22:03.514Z,66.00
2022-08-28T08:24:30.425Z,65.45
2022-08-28T08:27:00.975Z,65.89
2022-08-28T08:29:35.480Z,65.29
2022-08-28T08:32:07.020Z,64.39
2022-08-28T08:34:36.462Z,63.61
2022-08-28T08:37:03.057Z,63.88
2022-08-28T08:39:29.496Z,63.97
2022-08-28T08:42:28.024Z,64.33
2022-08-28T08:45:05.252Z,62.51
2022-08-28T08:47:47.620Z,62.47
2022-08-28T08:50:41.519Z,62.99
2022-08-28T08:53:32.725Z,61.55
2022-08-28T08:56:00.132Z,59.81
2022-08-28T08:58:42.280Z,60.15
2022-08-28T09:01:32.485Z,61.03
2022-08-28T09:04:25.920Z,61.15
2022-08-28T09:07:00.987Z,61.25
2022-08-28T09:09:32.863Z,58.91
2022-08-28T09:12:23.063Z,59.37
2022-08-28T09:15:04.853Z,59.43
2022-08-28T09:17:37.543Z,59.40
2022-08-28T09:20:09.590Z,59.40
2022-08-28T09:22:37.675Z,59.77
2022-08-28T09:25:06.040Z,58.81
2022-08-28T09:27:36.854Z,59.69
2022-08-28T09:30:10.257Z,57.79
2022-08-28T09:32:46.752Z,58.60
2022-08-28T09:35:32.788Z,56.78
2022-08-28T09:38:23.031Z,57.39
2022-08-28T09:41:31.508Z,57.16
2022-08-28T09:43:58.036Z,55.38
2022-08-28T09:46:29.354Z,55.43
2022-08-28T09:49:10.689Z,56.14
2022-08-28T09:51:38.839Z,55.40
2022-08-28T09:54:22.519Z,55.92
2022-08-28T09:56:50.321Z,55.47
2022-08-28T09:59:19.406Z,55.42
2022-08-28T10:02:35.842Z,56.29
2022-08-28T10:05:10.496Z,55.48
2022-08-28T10:07:54.879Z,55.71
2022-08-28T10:10:36.735Z,55.03
2022-08-28T10:13:16.015Z,55.05
2022-08-28T10:16:00.902Z,55.88
2022-08-28T10:19:05.228Z,56.82
2022-08-28T10:21:44.640Z,55.82
2022-08-28T10:24:28.571Z,56.29
2022-08-28T10:27:25.224Z,56.18
2022-08-28T10:30:15.304Z,55.97
2022-08-28T10:33:09.067Z,55.74
2022-08-28T10:36:33.322Z,56.19
2022-08-28T10:39:24.632Z,56.64
2022-08-28T10:42:04.760Z,54.46
2022-08-28T10:44:53.752Z,53.93
2022-08-28T10:47:24.179Z,54.35
2022-08-28T10:50:04.620Z,53.92
2022-08-28T10:52:41.844Z,53.68
2022-08-28T10:55:21.871Z,53.95
2022-08-28T10:57:57.922Z,54.04
2022-08-28T11:00:27.256Z,55.14
2022-08-28T11:03:32.701Z,53.33
2022-08-28T11:06:13.947Z,54.14
2022-08-28T11:08:40.699Z,54.58
2022-08-28T11:11:14.929Z,54.43
2022-08-28T11:13:47.548Z,54.83
2022-08-28T11:16:33.370Z,54.15
2022-08-28T11:19:30.469Z,54.27
2022-08-28T11:22:18.371Z,52.71
2022-08-28T11:25:26.617Z,52.76
2022-08-28T11:28:19.774Z,52.48
2022-08-28T11:30:50.061Z,52.20
2022-08-28T11:33:34.997Z,53.52
2022-08-28T11:36:01.956Z,50.23
2022-08-28T11:38:40.550Z,51.27
2022-08-28T11:41:22.556Z,50.89
2022-08-28T11:43:52.420Z,51.64
2022-08-28T11:46:31.412Z,51.70
2022-08-28T11:49:06.240Z,51.84
2022-08-28T11:51:46.084Z,51.64
2022-08-28T11:54:26.562Z,51.79
2022-08-28T11:57:06.688Z,51.72
2022-08-28T12:02:39.173Z,50.73
2022-08-28T12:05:10.084Z,50.39
2022-08-28T12:07:43.077Z,51.21
2022-08-28T12:10:35.680Z,50.98
2022-08-28T12:13:03.612Z,49.52
2022-08-28T12:16:04.960Z,50.67
2022-08-28T12:18:51.411Z,50.42
2022-08-28T12:21:21.511Z,49.44
2022-08-28T12:24:09.175Z,50.21
2022-08-28T12:26:43.564Z,49.82
2022-08-28T12:29:31.243Z,49.67
2022-08-28T12:32:12.933Z,49.51
2022-08-28T12:34:42.415Z,48.21
2022-08-28T12:37:51.870Z,49.21
2022-08-28T12:40:37.804Z,50.23
2022-08-28T12:43:07.709Z,50.37
2022-08-28T12:45:42.920Z,49.22
2022-08-28T12:48:31.656Z,49.84
2022-08-28T12:51:06.368Z,50.66
2022-08-28T12:53:43.215Z,50.43
2022-08-28T12:56:15.252Z,50.06
2022-08-28T12:58:43.563Z,48.36
2022-08-28T13:01:14.492Z,47.95
2022-08-28T13:03:53.391Z,49.00
2022-08-28T13:06:40.135Z,48.95
2022-08-28T13:09:15.488Z,48.85
2022-08-28T13:11:47.221Z,48.27
2022-08-28T13:14:13.653Z,45.85
2022-08-28T13:16:47.482Z,46.77
2022-08-28T13:19:33.372Z,46.37
2022-08-28T13:22:24.452Z,46.78
2022-08-28T13:24:59.629Z,47.11
2022-08-28T13:27:26.820Z,46.80
2022-08-28T13:29:57.395Z,46.74
2022-08-28T13:32:26.864Z,46.29
2022-08-28T13:35:13.531Z,46.90
2022-08-28T13:37:43.717Z,48.09
2022-08-28T13:40:24.500Z,48.74
2022-08-28T13:43:02.836Z,48.32
2022-08-28T13:45:36.378Z,48.17
2022-08-28T13:48:12.149Z,48.31
2022-08-28T13:50:40.040Z,49.25
2022-08-28T13:53:06.608Z,50.15
2022-08-28T13:55:33.530Z,51.01
2022-08-28T13:57:59.916Z,50.95
2022-08-28T14:00:28.187Z,50.50
2022-08-28T14:03:13.355Z,50.26
2022-08-28T14:05:39.878Z,50.57
2022-08-28T14:08:06.299Z,50.68
2022-08-28T14:10:32.747Z,48.45
2022-08-28T14:12:59.212Z,48.37
2022-08-28T14:15:25.704Z,48.67
2022-08-28T14:17:52.195Z,48.67
2022-08-28T14:20:18.698Z,48.53
2022-08-28T14:22:45.149Z,48.69
2022-08-28T14:25:11.707Z,48.30
2022-08-28T14:27:38.313Z,48.92
2022-08-28T14:30:09.244Z,49.87
2022-08-28T14:32:37.967Z,50.10
2022-08-28T14:35:05.498Z,49.51
2022-08-28T14:37:32.377Z,49.06
2022-08-28T14:39:58.782Z,49.20
2022-08-28T14:42:26.537Z,49.03
2022-08-28T14:44:57.117Z,49.63
2022-08-28T14:47:24.915Z,49.55
2022-08-28T14:49:51.618Z,49.14
2022-08-28T14:52:19.449Z,47.70
2022-08-28T14:54:45.968Z,47.58
2022-08-28T14:57:12.496Z,47.92
2022-08-28T14:59:54.356Z,48.26
2022-08-28T15:02:20.780Z,47.96
2022-08-28T15:04:47.157Z,47.77
2022-08-28T15:07:13.743Z,49.08
2022-08-28T15:09:42.584Z,48.88
2022-08-28T15:12:09.547Z,49.78
2022-08-28T15:14:36.096Z,50.98
2022-08-28T15:17:03.395Z,50.89
2022-08-28T15:19:30.084Z,50.79
2022-08-28T15:21:57.289Z,50.50
2022-08-28T15:24:30.877Z,51.12
2022-08-28T15:26:59.598Z,50.74
2022-08-28T15:29:27.958Z,50.18
2022-08-28T15:31:54.443Z,49.27
2022-08-28T15:34:24.043Z,48.80
2022-08-28T15:36:55.125Z,48.90
2022-08-28T15:39:45.296Z,48.87
2022-08-28T15:42:28.205Z,49.53
2022-08-28T15:47:24.939Z,50.08
2022-08-28T15:49:59.524Z,50.95
2022-08-28T15:52:25.959Z,51.47
2022-08-28T15:54:54.572Z,51.46
2022-08-28T15:57:23.045Z,50.49
2022-08-28T15:59:50.936Z,50.44
2022-08-28T16:02:22.811Z,50.83
2022-08-28T16:04:49.450Z,51.49
2022-08-28T16:07:16.775Z,51.07
2022-08-28T16:09:43.195Z,51.25
2022-08-28T16:12:09.647Z,50.62
2022-08-28T16:14:36.258Z,50.66
2022-08-28T16:17:47.116Z,50.90
2022-08-28T16:19:54.785Z,52.08
2022-08-28T16:22:21.191Z,52.00
2022-08-28T16:24:47.639Z,52.40
2022-08-28T16:27:15.739Z,52.90
2022-08-28T16:29:43.628Z,53.08
2022-08-28T16:32:11.802Z,53.90
2022-08-28T16:34:39.000Z,53.28
2022-08-28T16:37:06.038Z,53.59
2022-08-28T16:39:34.623Z,53.42
2022-08-28T16:42:01.084Z,53.59
2022-08-28T16:44:27.804Z,53.35
2022-08-28T16:46:55.581Z,53.66
2022-08-28T16:49:22.689Z,54.18
2022-08-28T16:51:49.457Z,54.18
2022-08-28T16:54:18.136Z,54.22
2022-08-28T16:56:45.996Z,54.33
2022-08-28T16:59:12.732Z,54.40
2022-08-28T17:01:40.867Z,54.69
2022-08-28T17:04:09.094Z,54.99
2022-08-28T17:06:35.526Z,55.05
2022-08-28T17:09:01.946Z,55.24
2022-08-28T17:11:28.695Z,54.49
2022-08-28T17:13:55.828Z,54.53
2022-08-28T17:16:23.717Z,54.70
2022-08-28T17:18:52.457Z,54.37
2022-08-28T17:21:38.922Z,53.75
2022-08-28T17:24:05.723Z,52.98
2022-08-28T17:26:32.498Z,53.17
2022-08-28T17:28:58.895Z,52.68
2022-08-28T17:31:25.493Z,53.55
2022-08-28T17:33:52.074Z,53.66
2022-08-28T17:36:32.539Z,54.63
2022-08-28T17:39:02.037Z,54.43
2022-08-28T17:41:31.569Z,54.26
2022-08-28T17:44:00.167Z,54.68
2022-08-28T17:46:27.697Z,54.73
2022-08-28T17:48:56.085Z,55.16
2022-08-28T17:51:42.607Z,55.12
2022-08-28T17:54:13.086Z,56.38
2022-08-28T17:56:40.204Z,55.89
2022-08-28T17:59:06.666Z,56.15
2022-08-28T18:01:33.178Z,57.03
2022-08-28T18:03:59.696Z,57.28
2022-08-28T18:06:26.250Z,56.95
2022-08-28T18:08:52.636Z,57.34
2022-08-28T18:11:19.542Z,57.76
2022-08-28T18:13:46.939Z,58.57
2022-08-28T18:16:13.805Z,58.58
2022-08-28T18:18:41.486Z,58.89
2022-08-28T18:21:11.204Z,60.05
2022-08-28T18:23:39.617Z,59.36
2022-08-28T18:26:07.204Z,59.79
2022-08-28T18:28:33.876Z,59.89
2022-08-28T18:31:00.923Z,60.10
2022-08-28T18:33:27.547Z,60.53
2022-08-28T18:36:16.831Z,60.30
2022-08-28T18:38:53.832Z,61.24
2022-08-28T18:41:21.723Z,61.11
2022-08-28T18:43:57.446Z,61.70
2022-08-28T18:46:37.022Z,62.17
2022-08-28T18:49:10.566Z,62.29
2022-08-28T18:51:44.607Z,63.22
2022-08-28T18:54:13.969Z,63.02
2022-08-28T18:56:48.651Z,63.66
2022-08-28T18:59:17.603Z,63.48
2022-08-28T19:02:04.286Z,63.39
2022-08-28T19:04:30.827Z,64.29
2022-08-28T19:07:19.099Z,64.29
2022-08-28T19:09:45.483Z,64.98
2022-08-28T19:12:23.791Z,64.47
2022-08-28T19:15:29.133Z,64.29
2022-08-28T19:17:56.168Z,65.26
2022-08-28T19:20:26.519Z,64.96
2022-08-28T19:22:52.947Z,65.94
2022-08-28T19:25:28.598Z,65.65
2022-08-28T19:27:59.318Z,66.04
2022-08-28T19:30:27.991Z,66.35
2022-08-28T19:32:54.963Z,66.93
2022-08-28T19:35:51.713Z,66.42
2022-08-28T19:38:22.737Z,67.05
2022-08-28T19:40:56.543Z,67.08
2022-08-28T19:43:42.570Z,66.99
2022-08-28T19:46:22.177Z,67.62
2022-08-28T19:48:50.572Z,68.17
2022-08-28T19:51:24.109Z,68.30
2022-08-28T19:54:10.940Z,68.08
2022-08-28T19:56:41.842Z,68.60
2022-08-28T19:59:09.028Z,68.99
2022-08-28T20:01:38.697Z,68.55
2022-08-28T20:04:16.732Z,69.21
2022-08-28T20:06:45.135Z,69.44
2022-08-28T20:09:16.176Z,69.31
2022-08-28T20:11:50.290Z,69.80
2022-08-28T20:14:20.444Z,69.61
2022-08-28T20:16:58.117Z,69.90
2022-08-28T20:19:24.667Z,69.28
2022-08-28T20:21:53.664Z,69.91
2022-08-28T20:24:24.071Z,70.10
2022-08-28T20:26:55.644Z,70.49
2022-08-28T20:29:39.610Z,70.41
2022-08-28T20:32:06.145Z,70.66
2022-08-28T20:34:35.680Z,70.95
2022-08-28T20:37:16.887Z,70.99
2022-08-28T20:39:43.446Z,71.26
2022-08-28T20:42:35.886Z,71.22
2022-08-28T20:45:18.491Z,71.17
2022-08-28T20:47:55.021Z,71.62
2022-08-28T20:50:26.674Z,71.87
2022-08-28T20:53:05.433Z,71.86
2022-08-28T20:55:59.741Z,71.94
2022-08-28T20:58:36.930Z,72.33
2022-08-28T21:01:23.452Z,72.21
2022-08-28T21:03:49.930Z,72.30
2022-08-28T21:06:16.372Z,72.24
2022-08-28T21:08:42.956Z,72.54
2022-08-28T21:11:13.459Z,72.39
2022-08-28T21:13:40.957Z,72.39
2022-08-28T21:16:09.028Z,72.54
2022-08-28T21:18:36.202Z,72.21
2022-08-28T21:21:14.981Z,72.45
2022-08-28T21:23:42.850Z,72.91
2022-08-28T21:26:13.352Z,72.99
2022-08-28T21:28:52.253Z,72.78
2022-08-28T21:31:20.753Z,73.10
2022-08-28T21:33:47.241Z,73.44
2022-08-28T21:36:16.876Z,73.51
2022-08-28T21:38:44.058Z,73.62
2022-08-28T21:41:13.328Z,73.48
2022-08-28T21:43:42.969Z,73.93
2022-08-28T21:46:10.868Z,74.47
2022-08-28T21:48:37.816Z,74.51
2022-08-28T21:51:13.138Z,74.18
2022-08-28T21:53:40.798Z,74.36
2022-08-28T21:56:08.568Z,74.70
2022-08-28T21:58:49.552Z,74.45
2022-08-28T22:01:35.798Z,74.38
2022-08-28T22:04:05.237Z,74.65
2022-08-28T22:06:59.739Z,74.13
2022-08-28T22:09:29.043Z,74.25
2022-08-28T22:11:55.590Z,73.99
2022-08-28T22:14:22.744Z,74.10
2022-08-28T22:16:49.434Z,74.24
2022-08-28T22:19:24.127Z,74.49
2022-08-28T22:22:18.323Z,74.16
2022-08-28T22:24:45.027Z,74.51
2022-08-28T22:27:13.485Z,74.83
2022-08-28T22:29:44.974Z,74.88
2022-08-28T22:32:11.567Z,74.96
2022-08-28T22:34:42.315Z,75.11
2022-08-28T22:37:11.455Z,75.49
2022-08-28T22:39:41.480Z,75.71
2022-08-28T22:42:17.221Z,75.75
2022-08-28T22:44:53.699Z,75.64
2022-08-28T22:47:22.199Z,76.20
2022-08-28T22:50:13.742Z,76.03
2022-08-28T22:52:43.198Z,75.76
2022-08-28T22:55:12.321Z,76.41
2022-08-28T22:57:39.440Z,76.50
2022-08-28T23:00:43.873Z,76.27
2022-08-28T23:03:10.524Z,76.49
2022-08-28T23:05:51.480Z,76.32
2022-08-28T23:08:18.712Z,76.63
2022-08-28T23:10:58.392Z,76.72
2022-08-28T23:13:35.749Z,76.92
2022-08-28T23:16:02.853Z,77.08
2022-08-28T23:18:46.304Z,77.49
2022-08-28T23:21:21.271Z,77.34
2022-08-28T23:23:53.662Z,77.57
2022-08-28T23:26:20.654Z,77.90
2022-08-28T23:28:53.182Z,77.54
2022-08-28T23:31:33.051Z,77.50
2022-08-28T23:33:59.668Z,78.19
2022-08-28T23:36:27.236Z,77.96
2022-08-28T23:38:53.716Z,78.30
2022-08-28T23:41:33.719Z,78.04
2022-08-28T23:44:03.134Z,78.33
2022-08-28T23:46:33.591Z,78.49
2022-08-28T23:49:00.333Z,78.38
2022-08-28T23:51:31.159Z,78.09
2022-08-28T23:53:59.621Z,78.71
2022-08-28T23:56:28.112Z,78.48
2022-08-28T23:58:57.934Z,78.55
